createdAt,value
2022-11-23T00:00:40.787Z,0.90
2022-11-23T00:03:07.479Z,1.13
2022-11-23T00:05:34.696Z,1.60
2022-11-23T00:08:02.149Z,1.27
2022-11-23T00:10:28.830Z,1.10
2022-11-23T00:12:55.756Z,1.20
2022-11-23T00:15:22.480Z,0.97
2022-11-23T00:17:49.436Z,1.03
2022-11-23T00:20:16.445Z,1.10
2022-11-23T00:22:43.217Z,1.40
2022-11-23T00:25:10.118Z,1.20
2022-11-23T00:27:36.844Z,1.13
2022-11-23T00:30:04.687Z,1.00
2022-11-23T00:32:31.412Z,0.90
2022-11-23T00:34:58.091Z,0.90
2022-11-23T00:37:24.814Z,0.97
2022-11-23T00:39:51.545Z,1.37
2022-11-23T00:42:18.386Z,0.90
2022-11-23T00:44:45.154Z,1.00
2022-11-23T00:47:11.860Z,1.33
2022-11-23T00:49:38.615Z,0.90
2022-11-23T00:52:05.383Z,1.10
2022-11-23T00:54:32.323Z,0.80
2022-11-23T00:56:59.457Z,0.97
2022-11-23T00:59:26.294Z,1.23
2022-11-23T01:01:53.019Z,0.90
2022-11-23T01:04:19.784Z,0.90
2022-11-23T01:06:46.636Z,1.00
2022-11-23T01:09:19.034Z,1.00
2022-11-23T01:11:45.820Z,0.80
2022-11-23T01:14:12.893Z,0.90
2022-11-23T01:16:41.150Z,0.80
2022-11-23T01:19:13.530Z,0.90
2022-11-23T01:21:40.627Z,1.70
2022-11-23T01:24:09.658Z,1.10
2022-11-23T01:26:36.356Z,1.13
2022-11-23T01:29:03.732Z,0.90
2022-11-23T01:31:30.589Z,1.00
2022-11-23T01:33:59.672Z,1.30
2022-11-23T01:36:28.698Z,1.00
2022-11-23T01:38:55.940Z,1.00
2022-11-23T01:41:25.938Z,1.00
2022-11-23T01:43:53.083Z,0.70
2022-11-23T01:46:20.404Z,1.20
2022-11-23T01:48:52.164Z,1.27
2022-11-23T01:51:28.467Z,0.70
2022-11-23T01:54:00.688Z,1.73
2022-11-23T01:56:32.337Z,0.97
2022-11-23T01:59:02.729Z,1.10
2022-11-23T02:01:29.808Z,1.40
2022-11-23T02:03:59.045Z,0.67
2022-11-23T02:06:25.719Z,0.80
2022-11-23T02:08:53.542Z,1.30
2022-11-23T02:11:20.636Z,0.87
2022-11-23T02:13:50.050Z,1.43
2022-11-23T02:16:18.149Z,1.10
2022-11-23T02:18:48.041Z,1.17
2022-11-23T02:21:15.005Z,1.00
2022-11-23T02:24:13.836Z,0.97
2022-11-23T02:26:41.404Z,0.97
2022-11-23T02:29:22.350Z,1.20
2022-11-23T02:31:49.444Z,1.03
2022-11-23T02:34:17.593Z,1.10
2022-11-23T02:36:50.413Z,0.97
2022-11-23T02:39:34.527Z,1.20
2022-11-23T02:42:01.744Z,1.00
2022-11-23T02:44:51.104Z,1.40
2022-11-23T02:47:18.023Z,1.27
2022-11-23T02:49:49.409Z,1.20
2022-11-23T02:52:17.721Z,1.13
2022-11-23T02:54:44.730Z,0.90
2022-11-23T02:57:11.466Z,0.90
2022-11-23T02:59:38.211Z,2.10
2022-11-23T03:02:05.772Z,0.80
2022-11-23T03:04:32.758Z,1.50
2022-11-23T03:06:59.495Z,0.77
2022-11-23T03:09:26.434Z,1.60
2022-11-23T03:11:53.816Z,1.47
2022-11-23T03:14:21.708Z,0.90
2022-11-23T03:16:48.454Z,0.80
2022-11-23T03:19:15.478Z,1.10
2022-11-23T03:21:42.208Z,0.90
2022-11-23T03:24:08.968Z,0.90
2022-11-23T03:26:35.689Z,1.60
2022-11-23T03:29:02.420Z,1.43
2022-11-23T03:31:29.201Z,1.07
2022-11-23T03:33:55.911Z,0.90
2022-11-23T03:36:22.728Z,1.20
2022-11-23T03:38:49.464Z,0.90
2022-11-23T03:41:16.235Z,1.30
2022-11-23T03:43:42.998Z,0.97
2022-11-23T03:46:09.731Z,1.10
2022-11-23T03:48:36.406Z,1.30
2022-11-23T03:51:03.119Z,1.10
2022-11-23T03:53:29.771Z,1.37
2022-11-23T03:55:58.164Z,1.00
2022-11-23T03:58:24.947Z,0.90
2022-11-23T04:00:51.668Z,1.60
2022-11-23T04:03:18.582Z,0.97
2022-11-23T04:05:45.269Z,1.13
2022-11-23T04:08:12.102Z,1.00
2022-11-23T04:10:38.805Z,1.07
2022-11-23T04:13:05.651Z,1.30
2022-11-23T04:15:32.516Z,1.37
2022-11-23T04:17:59.237Z,1.33
2022-11-23T04:20:26.032Z,1.27
2022-11-23T04:22:52.793Z,0.80
2022-11-23T04:25:19.585Z,1.50
2022-11-23T04:27:46.491Z,1.47
2022-11-23T04:30:13.956Z,1.20
2022-11-23T04:32:40.686Z,1.10
2022-11-23T04:35:07.705Z,1.07
2022-11-23T04:37:34.374Z,0.90
2022-11-23T04:40:01.153Z,1.40
2022-11-23T04:42:28.246Z,1.20
2022-11-23T04:44:55.088Z,1.20
2022-11-23T04:47:21.948Z,0.93
2022-11-23T04:49:48.648Z,1.27
2022-11-23T04:52:15.617Z,1.70
2022-11-23T04:54:42.397Z,1.30
2022-11-23T04:57:10.020Z,1.03
2022-11-23T04:59:36.712Z,1.07
2022-11-23T05:02:03.522Z,1.27
2022-11-23T05:04:30.149Z,1.33
2022-11-23T05:06:56.891Z,1.80
2022-11-23T05:09:23.581Z,1.00
2022-11-23T05:11:50.337Z,1.00
2022-11-23T05:14:17.252Z,1.07
2022-11-23T05:16:44.308Z,1.07
2022-11-23T05:19:11.304Z,1.17
2022-11-23T05:21:38.154Z,1.27
2022-11-23T05:24:05.080Z,1.10
2022-11-23T05:26:31.741Z,1.40
2022-11-23T05:28:58.500Z,1.67
2022-11-23T05:31:25.214Z,1.20
2022-11-23T05:33:51.932Z,1.10
2022-11-23T05:36:18.648Z,1.60
2022-11-23T05:38:45.401Z,0.77
2022-11-23T05:41:12.348Z,1.47
2022-11-23T05:43:39.109Z,1.20
2022-11-23T05:46:05.924Z,1.70
2022-11-23T05:48:32.768Z,1.60
2022-11-23T05:51:04.847Z,1.20
2022-11-23T05:53:32.661Z,1.70
2022-11-23T05:56:01.403Z,2.10
2022-11-23T05:58:28.687Z,1.40
2022-11-23T06:01:01.463Z,1.10
2022-11-23T06:03:28.492Z,1.33
2022-11-23T06:05:55.248Z,1.57
2022-11-23T06:08:21.953Z,1.43
2022-11-23T06:10:48.696Z,1.27
2022-11-23T06:13:15.481Z,1.07
2022-11-23T06:15:42.200Z,1.20
2022-11-23T06:18:09.518Z,1.00
2022-11-23T06:20:36.285Z,2.10
2022-11-23T06:23:03.076Z,0.87
2022-11-23T06:25:30.137Z,1.90
2022-11-23T06:27:58.822Z,1.00
2022-11-23T06:30:27.183Z,1.47
2022-11-23T06:32:53.915Z,2.00
2022-11-23T06:35:20.766Z,1.57
2022-11-23T06:37:52.002Z,1.80
2022-11-23T06:40:18.811Z,1.50
2022-11-23T06:42:46.013Z,1.40
2022-11-23T06:45:12.859Z,2.10
2022-11-23T06:47:39.722Z,2.60
2022-11-23T06:50:07.048Z,1.80
2022-11-23T06:52:33.764Z,1.33
2022-11-23T06:55:00.482Z,1.70
2022-11-23T06:57:27.194Z,2.20
2022-11-23T06:59:53.959Z,2.07
2022-11-23T07:02:20.665Z,1.93
2022-11-23T07:04:47.421Z,2.20
2022-11-23T07:07:14.160Z,2.37
2022-11-23T07:09:40.895Z,2.13
2022-11-23T07:12:07.954Z,2.10
2022-11-23T07:14:34.692Z,2.90
2022-11-23T07:17:01.464Z,2.00
2022-11-23T07:19:28.152Z,2.33
2022-11-23T07:21:54.935Z,1.70
2022-11-23T07:24:21.628Z,1.70
2022-11-23T07:26:48.470Z,2.27
2022-11-23T07:29:15.184Z,1.80
2022-11-23T07:31:41.836Z,2.33
2022-11-23T07:34:09.342Z,2.63
2022-11-23T07:36:36.036Z,1.97
2022-11-23T07:39:03.480Z,1.90
2022-11-23T07:41:30.279Z,1.97
2022-11-23T07:43:57.053Z,3.07
2022-11-23T07:46:23.740Z,2.57
2022-11-23T07:48:50.568Z,2.20
2022-11-23T07:51:19.574Z,2.07
2022-11-23T07:53:47.144Z,1.77
2022-11-23T07:56:13.838Z,2.47
2022-11-23T07:58:40.647Z,1.90
2022-11-23T08:01:07.481Z,2.13
2022-11-23T08:03:34.756Z,3.20
2022-11-23T08:06:01.518Z,2.50
2022-11-23T08:08:28.233Z,2.27
2022-11-23T08:10:55.021Z,2.00
2022-11-23T08:13:22.851Z,2.13
2022-11-23T08:15:54.816Z,3.47
2022-11-23T08:18:24.039Z,3.40
2022-11-23T08:20:50.899Z,7.03
2022-11-23T08:23:17.593Z,2.17
2022-11-23T08:25:44.538Z,2.30
2022-11-23T08:28:11.824Z,2.30
2022-11-23T08:30:39.289Z,2.53
2022-11-23T08:33:07.306Z,2.53
2022-11-23T08:35:36.505Z,2.83
2022-11-23T08:38:04.225Z,1.77
2022-11-23T08:40:31.569Z,2.67
2022-11-23T08:42:58.294Z,2.13
2022-11-23T08:45:25.208Z,1.90
2022-11-23T08:47:53.017Z,2.90
2022-11-23T08:50:21.365Z,3.63
2022-11-23T08:52:48.225Z,2.57
2022-11-23T08:55:15.019Z,2.50
2022-11-23T08:57:42.108Z,2.50
2022-11-23T09:00:09.439Z,2.50
2022-11-23T09:02:36.512Z,2.37
2022-11-23T09:05:04.626Z,3.00
2022-11-23T09:07:32.587Z,2.30
2022-11-23T09:09:59.309Z,2.20
2022-11-23T09:12:26.008Z,2.27
2022-11-23T09:14:53.275Z,2.20
2022-11-23T09:17:20.062Z,2.63
2022-11-23T09:19:46.921Z,2.47
2022-11-23T09:22:13.608Z,1.87
2022-11-23T09:24:40.340Z,2.93
2022-11-23T09:27:07.203Z,2.43
2022-11-23T09:29:34.029Z,2.07
2022-11-23T09:32:02.656Z,3.27
2022-11-23T09:34:29.353Z,3.07
2022-11-23T09:36:58.058Z,3.40
2022-11-23T09:39:25.523Z,2.20
2022-11-23T09:42:19.240Z,2.53
2022-11-23T09:44:52.493Z,2.20
2022-11-23T09:47:44.940Z,2.63
2022-11-23T09:50:28.319Z,5.57
2022-11-23T09:52:55.091Z,2.10
2022-11-23T09:55:24.635Z,2.40
2022-11-23T09:57:56.790Z,2.50
2022-11-23T10:00:24.500Z,1.80
2022-11-23T10:02:51.280Z,2.40
2022-11-23T10:05:22.114Z,1.70
2022-11-23T10:08:25.972Z,2.40
2022-11-23T10:11:26.572Z,1.87
2022-11-23T10:14:35.206Z,2.60
2022-11-23T10:17:30.880Z,2.47
2022-11-23T10:20:23.602Z,2.30
2022-11-23T10:23:07.715Z,1.77
2022-11-23T10:25:49.999Z,1.80
2022-11-23T10:28:19.420Z,2.10
2022-11-23T10:30:55.387Z,2.03
2022-11-23T10:33:31.566Z,1.57
2022-11-23T10:35:58.433Z,1.60
2022-11-23T10:38:28.637Z,2.47
2022-11-23T10:41:09.693Z,2.40
2022-11-23T10:43:52.380Z,1.33
2022-11-23T10:46:31.122Z,1.53
2022-11-23T10:49:09.386Z,1.90
2022-11-23T10:51:36.276Z,2.47
2022-11-23T10:54:18.101Z,2.00
2022-11-23T10:56:50.119Z,1.97
2022-11-23T10:59:36.958Z,2.83
2022-11-23T11:02:19.447Z,2.43
2022-11-23T11:04:47.618Z,1.50
2022-11-23T11:07:26.049Z,1.83
2022-11-23T11:09:56.602Z,2.30
2022-11-23T11:12:24.494Z,1.60
2022-11-23T11:15:15.385Z,2.07
2022-11-23T11:17:42.739Z,2.27
2022-11-23T11:20:27.890Z,1.90
2022-11-23T11:22:57.170Z,2.03
2022-11-23T11:25:36.356Z,1.87
2022-11-23T11:28:06.734Z,2.40
2022-11-23T11:30:56.477Z,3.83
2022-11-23T11:33:36.349Z,1.80
2022-11-23T11:36:07.012Z,1.50
2022-11-23T11:38:38.670Z,1.80
2022-11-23T11:41:14.728Z,2.67
2022-11-23T11:43:47.534Z,2.33
2022-11-23T11:46:30.505Z,1.80
2022-11-23T11:49:06.244Z,2.03
2022-11-23T11:51:35.356Z,2.00
2022-11-23T11:54:45.425Z,2.97
2022-11-23T11:57:24.619Z,1.97
2022-11-23T11:59:57.518Z,1.70
2022-11-23T12:02:33.814Z,1.83
2022-11-23T12:05:19.286Z,1.77
2022-11-23T12:08:15.492Z,2.50
2022-11-23T12:10:53.038Z,2.10
2022-11-23T12:13:26.163Z,2.00
2022-11-23T12:16:16.023Z,2.47
2022-11-23T12:18:51.870Z,1.90
2022-11-23T12:21:52.743Z,2.67
2022-11-23T12:24:34.127Z,1.70
2022-11-23T12:27:16.054Z,1.50
2022-11-23T12:30:21.403Z,1.60
2022-11-23T12:32:58.623Z,1.50
2022-11-23T12:35:46.867Z,1.20
2022-11-23T12:38:32.512Z,1.40
2022-11-23T12:41:11.138Z,1.87
2022-11-23T12:44:25.368Z,1.27
2022-11-23T12:47:24.083Z,1.30
2022-11-23T12:50:00.789Z,1.30
2022-11-23T12:52:41.178Z,2.03
2022-11-23T12:55:36.129Z,2.00
2022-11-23T12:58:19.469Z,1.33
2022-11-23T13:00:52.751Z,1.50
2022-11-23T13:03:45.790Z,1.73
2022-11-23T13:06:34.720Z,1.13
2022-11-23T13:09:39.804Z,1.33
2022-11-23T13:12:44.457Z,1.50
2022-11-23T13:15:17.237Z,2.30
2022-11-23T13:18:16.314Z,1.63
2022-11-23T13:21:04.649Z,2.00
2022-11-23T13:23:39.559Z,2.80
2022-11-23T13:26:12.912Z,1.20
2022-11-23T13:28:39.778Z,1.50
2022-11-23T13:31:16.165Z,1.97
2022-11-23T13:33:45.400Z,1.97
2022-11-23T13:37:04.488Z,2.17
2022-11-23T13:39:52.138Z,2.20
2022-11-23T13:42:20.092Z,1.60
2022-11-23T13:44:47.426Z,6.03
2022-11-23T13:47:17.425Z,2.47
2022-11-23T13:49:47.483Z,1.60
2022-11-23T13:52:23.482Z,2.30
2022-11-23T13:55:11.839Z,2.17
2022-11-23T13:57:40.399Z,1.90
2022-11-23T14:00:44.163Z,2.93
2022-11-23T14:03:48.553Z,1.80
2022-11-23T14:06:18.179Z,2.03
2022-11-23T14:08:47.182Z,2.20
2022-11-23T14:11:17.784Z,2.03
2022-11-23T14:13:57.149Z,1.80
2022-11-23T14:16:33.583Z,2.20
2022-11-23T14:19:26.600Z,1.87
2022-11-23T14:22:26.556Z,1.23
2022-11-23T14:25:14.968Z,1.80
2022-11-23T14:28:02.609Z,2.10
2022-11-23T14:30:45.397Z,1.83
2022-11-23T14:33:28.665Z,2.53
2022-11-23T14:36:17.797Z,2.10
2022-11-23T14:39:09.120Z,1.70
2022-11-23T14:41:36.406Z,1.80
2022-11-23T14:44:06.395Z,1.90
2022-11-23T14:46:33.521Z,4.83
2022-11-23T14:49:14.491Z,2.93
2022-11-23T14:51:45.108Z,4.23
2022-11-23T14:54:15.301Z,1.80
2022-11-23T14:56:48.059Z,1.70
2022-11-23T14:59:18.220Z,2.37
2022-11-23T15:02:00.095Z,1.60
2022-11-23T15:04:36.999Z,1.40
2022-11-23T15:07:12.630Z,1.57
2022-11-23T15:09:54.401Z,2.03
2022-11-23T15:12:24.914Z,1.77
2022-11-23T15:14:54.030Z,1.90
2022-11-23T15:17:22.499Z,1.90
2022-11-23T15:20:00.467Z,1.40
2022-11-23T15:22:28.648Z,1.77
2022-11-23T15:25:08.125Z,4.17
2022-11-23T15:27:41.342Z,2.43
2022-11-23T15:30:30.877Z,1.63
2022-11-23T15:33:00.665Z,1.40
2022-11-23T15:35:36.851Z,2.47
2022-11-23T15:38:07.660Z,1.77
2022-11-23T15:40:37.475Z,2.20
2022-11-23T15:43:04.590Z,2.07
2022-11-23T15:45:38.708Z,1.70
2022-11-23T15:48:12.405Z,1.43
2022-11-23T15:50:47.476Z,1.87
2022-11-23T15:53:14.605Z,2.97
2022-11-23T15:55:43.100Z,2.37
2022-11-23T15:58:15.176Z,1.70
2022-11-23T16:00:51.767Z,1.80
2022-11-23T16:03:35.357Z,1.97
2022-11-23T16:06:11.254Z,2.60
2022-11-23T16:08:40.792Z,2.40
2022-11-23T16:11:21.213Z,2.80
2022-11-23T16:13:48.112Z,2.10
2022-11-23T16:16:18.663Z,2.33
2022-11-23T16:18:48.378Z,1.93
2022-11-23T16:21:18.068Z,2.30
2022-11-23T16:23:50.658Z,3.30
2022-11-23T16:26:18.269Z,2.30
2022-11-23T16:28:55.155Z,2.57
2022-11-23T16:31:31.064Z,2.80
2022-11-23T16:33:58.044Z,2.13
2022-11-23T16:36:27.694Z,2.73
2022-11-23T16:38:59.684Z,2.10
2022-11-23T16:41:29.308Z,2.43
2022-11-23T16:43:56.129Z,2.97
2022-11-23T16:46:23.307Z,2.67
2022-11-23T16:48:50.198Z,2.30
2022-11-23T16:51:17.222Z,1.67
2022-11-23T16:56:33.141Z,1.93
2022-11-23T16:59:00.206Z,2.27
2022-11-23T17:01:29.785Z,1.60
2022-11-23T17:03:56.703Z,1.97
2022-11-23T17:06:23.759Z,2.37
2022-11-23T17:08:59.285Z,1.63
2022-11-23T17:11:28.357Z,1.97
2022-11-23T17:13:56.905Z,1.63
2022-11-23T17:16:25.871Z,1.30
2022-11-23T17:18:53.758Z,1.53
2022-11-23T17:21:20.564Z,2.13
2022-11-23T17:23:47.310Z,2.10
2022-11-23T17:26:36.326Z,2.33
2022-11-23T17:29:12.246Z,1.50
2022-11-23T17:31:39.121Z,1.60
2022-11-23T17:34:05.896Z,1.70
2022-11-23T17:36:32.795Z,1.53
2022-11-23T17:38:59.507Z,1.27
2022-11-23T17:41:26.296Z,2.10
2022-11-23T17:43:54.240Z,2.03
2022-11-23T17:46:24.886Z,1.40
2022-11-23T17:48:55.443Z,2.07
2022-11-23T17:51:22.193Z,1.40
2022-11-23T17:53:48.980Z,2.27
2022-11-23T17:56:19.774Z,1.73
2022-11-23T17:58:47.125Z,2.47
2022-11-23T18:01:15.697Z,2.30
2022-11-23T18:03:43.519Z,2.60
2022-11-23T18:06:19.456Z,2.30
2022-11-23T18:08:47.263Z,2.33
2022-11-23T18:11:14.752Z,4.30
2022-11-23T18:13:42.672Z,2.43
2022-11-23T18:16:10.223Z,2.20
2022-11-23T18:18:37.567Z,2.90
2022-11-23T18:21:05.466Z,2.80
2022-11-23T18:23:32.734Z,2.40
2022-11-23T18:26:19.805Z,2.20
2022-11-23T18:28:47.043Z,2.10
2022-11-23T18:31:14.187Z,2.70
2022-11-23T18:33:41.026Z,2.70
2022-11-23T18:36:08.744Z,3.43
2022-11-23T18:38:36.125Z,2.53
2022-11-23T18:41:03.218Z,2.30
2022-11-23T18:43:30.036Z,2.30
2022-11-23T18:45:56.888Z,2.90
2022-11-23T18:48:23.769Z,3.10
2022-11-23T18:50:51.352Z,2.37
2022-11-23T18:53:18.843Z,4.80
2022-11-23T18:55:45.709Z,3.60
2022-11-23T18:58:12.673Z,3.37
2022-11-23T19:00:39.392Z,3.73
2022-11-23T19:03:06.337Z,3.13
2022-11-23T19:05:34.642Z,3.23
2022-11-23T19:08:04.417Z,4.80
2022-11-23T19:10:33.960Z,3.67
2022-11-23T19:13:05.447Z,3.10
2022-11-23T19:15:33.794Z,3.03
2022-11-23T19:18:01.028Z,3.70
2022-11-23T19:20:29.938Z,3.60
2022-11-23T19:22:56.716Z,2.97
2022-11-23T19:25:23.629Z,3.20
2022-11-23T19:27:51.513Z,2.87
2022-11-23T19:30:20.431Z,2.90
2022-11-23T19:32:47.295Z,3.10
2022-11-23T19:35:14.124Z,3.00
2022-11-23T19:37:47.387Z,2.90
2022-11-23T19:40:14.840Z,2.90
2022-11-23T19:42:42.768Z,2.60
2022-11-23T19:45:10.383Z,3.03
2022-11-23T19:47:37.207Z,3.10
2022-11-23T19:50:04.335Z,3.40
2022-11-23T19:52:55.338Z,2.97
2022-11-23T19:55:18.064Z,2.70
2022-11-23T19:57:45.037Z,3.67
2022-11-23T20:00:12.408Z,2.73
2022-11-23T20:02:39.077Z,2.97
2022-11-23T20:05:06.856Z,2.50
2022-11-23T20:07:33.755Z,3.20
2022-11-23T20:10:00.661Z,3.00
2022-11-23T20:12:27.452Z,2.90
2022-11-23T20:14:54.249Z,3.40
2022-11-23T20:17:21.013Z,2.97
2022-11-23T20:19:47.811Z,2.90
2022-11-23T20:22:14.593Z,2.83
2022-11-23T20:24:41.398Z,3.20
2022-11-23T20:27:08.124Z,3.60
2022-11-23T20:29:35.449Z,3.50
2022-11-23T20:32:02.448Z,3.20
2022-11-23T20:34:29.336Z,3.10
2022-11-23T20:36:56.116Z,3.23
2022-11-23T20:39:23.008Z,3.03
2022-11-23T20:41:49.863Z,5.00
2022-11-23T20:44:17.002Z,6.40
2022-11-23T20:49:30.777Z,7.10
2022-11-23T20:51:58.245Z,10.20
2022-11-23T20:54:24.974Z,3.30
2022-11-23T20:56:51.703Z,3.50
2022-11-23T20:59:19.737Z,4.20
2022-11-23T21:01:46.574Z,4.83
2022-11-23T21:04:13.442Z,3.93
2022-11-23T21:06:40.543Z,3.43
2022-11-23T21:09:09.320Z,3.60
2022-11-23T21:11:55.256Z,3.40
2022-11-23T21:14:25.388Z,3.80
2022-11-23T21:16:58.371Z,4.20
2022-11-23T21:19:33.645Z,4.57
2022-11-23T21:22:12.091Z,4.20
2022-11-23T21:24:40.114Z,3.90
2022-11-23T21:27:08.498Z,4.27
2022-11-23T21:29:35.296Z,4.53
2022-11-23T21:32:01.984Z,4.13
2022-11-23T21:34:30.524Z,4.57
2022-11-23T21:36:58.863Z,3.80
2022-11-23T21:39:25.713Z,4.40
2022-11-23T21:41:53.992Z,5.40
2022-11-23T21:44:22.750Z,4.00
2022-11-23T21:46:50.208Z,4.70
2022-11-23T21:49:17.101Z,4.37
2022-11-23T21:51:45.566Z,5.20
2022-11-23T21:54:16.174Z,5.60
2022-11-23T21:56:45.057Z,5.50
2022-11-23T21:59:12.675Z,5.27
2022-11-23T22:01:39.806Z,7.90
2022-11-23T22:04:15.369Z,5.63
2022-11-23T22:06:44.320Z,4.80
2022-11-23T22:09:11.747Z,4.67
2022-11-23T22:11:41.544Z,8.47
2022-11-23T22:14:14.411Z,4.23
2022-11-23T22:16:46.226Z,4.53
2022-11-23T22:19:15.090Z,4.17
2022-11-23T22:21:43.532Z,12.10
2022-11-23T22:24:15.346Z,4.80
2022-11-23T22:26:43.290Z,4.70
2022-11-23T22:29:11.147Z,8.80
2022-11-23T22:31:38.561Z,4.60
2022-11-23T22:34:08.795Z,4.17
2022-11-23T22:36:35.602Z,4.30
2022-11-23T22:39:05.377Z,4.30
2022-11-23T22:41:37.555Z,5.07
2022-11-23T22:44:09.412Z,4.00
2022-11-23T22:46:37.654Z,4.83
2022-11-23T22:49:05.246Z,6.10
2022-11-23T22:51:32.387Z,4.17
2022-11-23T22:54:00.669Z,4.50
2022-11-23T22:56:28.981Z,4.60
2022-11-23T22:58:56.149Z,5.27
2022-11-23T23:01:26.711Z,4.40
2022-11-23T23:03:55.857Z,5.30
2022-11-23T23:06:28.476Z,5.70
2022-11-23T23:08:58.141Z,5.63
2022-11-23T23:11:27.354Z,5.33
2022-11-23T23:13:54.292Z,6.47
2022-11-23T23:16:21.553Z,5.30
2022-11-23T23:18:48.719Z,6.17
2022-11-23T23:21:22.554Z,6.20
2022-11-23T23:23:51.912Z,4.60
2022-11-23T23:26:22.990Z,4.83
2022-11-23T23:28:54.747Z,4.00
2022-11-23T23:31:22.294Z,4.30
2022-11-23T23:33:49.165Z,4.30
2022-11-23T23:36:19.412Z,3.80
2022-11-23T23:38:46.866Z,3.67
2022-11-23T23:41:14.699Z,4.10
2022-11-23T23:43:42.200Z,3.57
2022-11-23T23:46:11.320Z,3.40
2022-11-23T23:48:39.712Z,3.87
2022-11-23T23:51:19.436Z,3.63
2022-11-23T23:53:47.104Z,4.23
2022-11-23T23:56:18.197Z,3.90
2022-11-23T23:58:45.215Z,3.50
